createdAt,value
2019-02-19T00:00:12.776Z,19.00
2019-02-19T00:02:40.624Z,19.00
2019-02-19T00:05:08.462Z,19.00
2019-02-19T00:07:36.378Z,19.00
2019-02-19T00:10:04.239Z,19.00
2019-02-19T00:12:32.181Z,19.00
2019-02-19T00:15:07.873Z,18.90
2019-02-19T00:17:30.259Z,18.90
2019-02-19T00:19:58.107Z,18.90
2019-02-19T00:22:26.299Z,18.90
2019-02-19T00:24:54.527Z,18.90
2019-02-19T00:27:22.393Z,18.90
2019-02-19T00:29:50.231Z,18.90
2019-02-19T00:32:18.104Z,18.90
2019-02-19T00:34:45.984Z,18.90
2019-02-19T00:37:13.846Z,18.90
2019-02-19T00:39:41.695Z,18.90
2019-02-19T00:42:09.555Z,18.90
2019-02-19T00:44:37.395Z,18.90
2019-02-19T00:47:05.268Z,18.90
2019-02-19T00:49:33.118Z,18.90
2019-02-19T00:52:00.987Z,18.80
2019-02-19T00:54:29.208Z,18.90
2019-02-19T00:56:57.352Z,18.90
2019-02-19T00:59:25.209Z,18.80
2019-02-19T01:01:53.389Z,18.80
2019-02-19T01:04:21.245Z,18.80
2019-02-19T01:06:49.088Z,18.80
2019-02-19T01:09:16.948Z,18.80
2019-02-19T01:11:44.870Z,18.80
2019-02-19T01:14:12.707Z,18.80
2019-02-19T01:16:40.547Z,18.80
2019-02-19T01:19:08.478Z,18.80
2019-02-19T01:21:36.315Z,18.80
2019-02-19T01:24:04.168Z,18.80
2019-02-19T01:26:32.014Z,18.80
2019-02-19T01:28:59.876Z,18.70
2019-02-19T01:31:27.747Z,18.80
2019-02-19T01:33:55.615Z,18.80
2019-02-19T01:36:23.447Z,18.70
2019-02-19T01:38:51.323Z,18.70
2019-02-19T01:41:19.163Z,18.70
2019-02-19T01:43:47.032Z,18.70
2019-02-19T01:46:14.870Z,18.70
2019-02-19T01:48:43.051Z,18.70
2019-02-19T01:51:10.894Z,18.70
2019-02-19T01:53:38.827Z,18.70
2019-02-19T01:56:06.834Z,18.70
2019-02-19T01:58:34.720Z,18.70
2019-02-19T02:01:02.563Z,18.70
2019-02-19T02:03:30.512Z,18.70
2019-02-19T02:05:58.357Z,18.70
2019-02-19T02:08:26.220Z,18.70
2019-02-19T02:10:54.066Z,18.60
2019-02-19T02:13:21.931Z,18.60
2019-02-19T02:15:49.774Z,18.60
2019-02-19T02:18:17.645Z,18.60
2019-02-19T02:20:45.510Z,18.60
2019-02-19T02:23:13.387Z,18.60
2019-02-19T02:25:41.307Z,18.60
2019-02-19T02:28:09.530Z,18.60
2019-02-19T02:30:37.366Z,18.60
2019-02-19T02:33:05.563Z,18.60
2019-02-19T02:35:33.411Z,18.60
2019-02-19T02:38:01.253Z,18.50
2019-02-19T02:40:29.100Z,18.60
2019-02-19T02:42:56.938Z,18.50
2019-02-19T02:45:25.100Z,18.50
2019-02-19T02:47:53.270Z,18.50
2019-02-19T02:50:21.140Z,18.50
2019-02-19T02:52:48.983Z,18.50
2019-02-19T02:55:16.878Z,18.50
2019-02-19T02:57:44.728Z,18.50
2019-02-19T03:00:12.957Z,18.50
2019-02-19T03:02:40.820Z,18.50
2019-02-19T03:05:09.051Z,18.50
2019-02-19T03:07:39.831Z,18.50
2019-02-19T03:10:07.698Z,18.50
2019-02-19T03:12:35.534Z,18.40
2019-02-19T03:15:04.064Z,18.40
2019-02-19T03:17:32.031Z,18.40
2019-02-19T03:19:59.886Z,18.40
2019-02-19T03:22:27.727Z,18.40
2019-02-19T03:24:55.593Z,18.40
2019-02-19T03:27:23.760Z,18.40
2019-02-19T03:29:51.707Z,18.40
2019-02-19T03:32:19.633Z,18.40
2019-02-19T03:34:47.505Z,18.40
2019-02-19T03:37:15.361Z,18.40
2019-02-19T03:39:43.203Z,18.40
2019-02-19T03:42:11.044Z,18.40
2019-02-19T03:44:39.215Z,18.30
2019-02-19T03:47:07.051Z,18.30
2019-02-19T03:49:34.895Z,18.40
2019-02-19T03:52:02.730Z,18.30
2019-02-19T03:54:30.862Z,18.30
2019-02-19T03:56:58.703Z,18.30
2019-02-19T03:59:26.546Z,18.30
2019-02-19T04:01:54.382Z,18.30
2019-02-19T04:04:22.226Z,18.30
2019-02-19T04:06:50.072Z,18.30
2019-02-19T04:09:17.914Z,18.30
2019-02-19T04:11:45.751Z,18.30
2019-02-19T04:14:13.597Z,18.30
2019-02-19T04:16:41.779Z,18.30
2019-02-19T04:19:09.621Z,18.30
2019-02-19T04:21:37.464Z,18.20
2019-02-19T04:24:05.303Z,18.30
2019-02-19T04:26:33.151Z,18.30
2019-02-19T04:29:01.010Z,18.20
2019-02-19T04:31:28.851Z,18.20
2019-02-19T04:33:56.700Z,18.20
2019-02-19T04:36:24.549Z,18.20
2019-02-19T04:38:52.706Z,18.20
2019-02-19T04:41:20.636Z,18.20
2019-02-19T04:43:48.508Z,18.20
2019-02-19T04:46:16.355Z,18.20
2019-02-19T04:48:44.198Z,18.20
2019-02-19T04:51:12.042Z,18.20
2019-02-19T04:53:39.883Z,18.20
2019-02-19T04:56:07.744Z,18.20
2019-02-19T04:58:35.916Z,18.20
2019-02-19T05:01:03.762Z,18.20
2019-02-19T05:03:31.608Z,18.10
2019-02-19T05:05:59.719Z,18.20
2019-02-19T05:08:27.568Z,18.10
2019-02-19T05:10:55.415Z,18.10
2019-02-19T05:13:23.255Z,18.10
2019-02-19T05:15:51.095Z,18.10
2019-02-19T05:18:18.935Z,18.10
2019-02-19T05:20:46.800Z,18.10
2019-02-19T05:23:14.630Z,18.10
2019-02-19T05:25:42.476Z,18.10
2019-02-19T05:28:10.611Z,18.10
2019-02-19T05:30:38.809Z,18.10
2019-02-19T05:33:06.638Z,18.10
2019-02-19T05:35:34.486Z,18.10
2019-02-19T05:38:02.319Z,18.10
2019-02-19T05:40:30.162Z,18.10
2019-02-19T05:42:58.322Z,18.00
2019-02-19T05:45:26.494Z,18.10
2019-02-19T05:47:54.693Z,18.10
2019-02-19T05:50:22.864Z,18.10
2019-02-19T05:52:51.015Z,18.10
2019-02-19T05:55:18.867Z,18.10
2019-02-19T05:57:46.700Z,18.10
2019-02-19T06:00:15.237Z,18.10
2019-02-19T06:02:43.154Z,18.20
2019-02-19T06:05:11.014Z,18.20
2019-02-19T06:07:38.859Z,18.30
2019-02-19T06:10:07.287Z,18.30
2019-02-19T06:12:35.230Z,18.30
2019-02-19T06:15:03.329Z,18.30
2019-02-19T06:17:31.168Z,18.40
2019-02-19T06:19:59.016Z,18.40
2019-02-19T06:22:26.860Z,18.40
2019-02-19T06:24:54.711Z,18.40
2019-02-19T06:27:22.896Z,18.40
2019-02-19T06:29:50.821Z,18.50
2019-02-19T06:32:18.651Z,18.50
2019-02-19T06:34:46.788Z,18.50
2019-02-19T06:37:14.633Z,18.50
2019-02-19T06:39:42.472Z,18.50
2019-02-19T06:42:10.317Z,18.50
2019-02-19T06:44:38.155Z,18.60
2019-02-19T06:47:07.064Z,18.60
2019-02-19T06:49:35.110Z,18.60
2019-02-19T06:52:03.283Z,18.60
2019-02-19T06:54:31.125Z,18.60
2019-02-19T06:56:58.979Z,18.60
2019-02-19T06:59:26.815Z,18.60
2019-02-19T07:02:14.197Z,18.60
2019-02-19T07:04:47.732Z,18.60
2019-02-19T07:07:15.580Z,18.70
2019-02-19T07:09:43.763Z,18.70
2019-02-19T07:12:11.619Z,18.70
2019-02-19T07:14:39.463Z,18.70
2019-02-19T07:17:15.259Z,18.70
2019-02-19T07:19:37.224Z,18.80
2019-02-19T07:22:05.076Z,18.80
2019-02-19T07:24:32.959Z,18.90
2019-02-19T07:27:00.832Z,19.00
2019-02-19T07:29:28.671Z,19.20
2019-02-19T07:31:56.937Z,19.30
2019-02-19T07:34:25.167Z,19.30
2019-02-19T07:36:53.343Z,19.30
2019-02-19T07:39:21.184Z,19.30
2019-02-19T07:41:49.059Z,19.30
2019-02-19T07:44:16.906Z,19.30
2019-02-19T07:46:44.766Z,19.30
2019-02-19T07:49:12.607Z,19.20
2019-02-19T07:51:40.478Z,19.10
2019-02-19T07:54:08.370Z,19.10
2019-02-19T07:56:36.244Z,19.30
2019-02-19T07:59:04.449Z,19.40
2019-02-19T08:01:32.314Z,19.40
2019-02-19T08:04:00.233Z,19.40
2019-02-19T08:06:28.088Z,19.40
2019-02-19T08:08:55.981Z,19.50
2019-02-19T08:11:23.832Z,19.50
2019-02-19T08:13:52.467Z,19.50
2019-02-19T08:16:20.315Z,19.50
2019-02-19T08:18:48.160Z,19.50
2019-02-19T08:21:16.008Z,19.50
2019-02-19T08:23:43.850Z,19.50
2019-02-19T08:26:11.780Z,19.50
2019-02-19T08:28:39.619Z,19.50
2019-02-19T08:31:07.465Z,19.50
2019-02-19T08:33:35.307Z,19.50
2019-02-19T08:36:03.154Z,19.60
2019-02-19T08:38:30.998Z,19.50
2019-02-19T08:40:58.841Z,19.50
2019-02-19T08:43:26.686Z,19.60
2019-02-19T08:45:54.555Z,19.60
2019-02-19T08:48:22.795Z,19.60
2019-02-19T08:50:51.626Z,19.60
2019-02-19T08:53:21.281Z,19.60
2019-02-19T08:55:49.919Z,19.50
2019-02-19T08:58:17.897Z,19.50
2019-02-19T09:00:46.022Z,19.50
2019-02-19T09:03:14.188Z,19.50
2019-02-19T09:05:42.102Z,19.60
2019-02-19T09:08:10.011Z,19.60
2019-02-19T09:10:37.853Z,19.40
2019-02-19T09:13:05.717Z,19.30
2019-02-19T09:15:33.644Z,19.30
2019-02-19T09:18:01.536Z,19.30
2019-02-19T09:20:29.663Z,19.30
2019-02-19T09:22:57.544Z,19.30
2019-02-19T09:25:25.393Z,19.40
2019-02-19T09:27:53.269Z,19.40
2019-02-19T09:30:21.179Z,19.40
2019-02-19T09:32:49.051Z,19.40
2019-02-19T09:35:17.172Z,19.40
2019-02-19T09:37:45.035Z,19.50
2019-02-19T09:40:12.878Z,19.40
2019-02-19T09:42:40.747Z,19.40
2019-02-19T09:45:08.586Z,19.40
2019-02-19T09:47:36.806Z,19.40
2019-02-19T09:50:05.288Z,19.50
2019-02-19T09:52:33.309Z,19.50
2019-02-19T09:55:01.157Z,19.60
2019-02-19T09:57:29.300Z,19.60
2019-02-19T09:59:57.775Z,19.70
2019-02-19T10:02:25.624Z,19.70
2019-02-19T10:04:53.463Z,19.70
2019-02-19T10:07:21.299Z,19.70
2019-02-19T10:09:49.144Z,19.70
2019-02-19T10:12:16.997Z,19.70
2019-02-19T10:14:45.175Z,19.70
2019-02-19T10:17:13.986Z,19.70
2019-02-19T10:19:41.834Z,19.70
2019-02-19T10:22:09.682Z,19.80
2019-02-19T10:24:37.867Z,19.80
2019-02-19T10:27:06.086Z,19.80
2019-02-19T10:29:34.000Z,19.80
2019-02-19T10:32:01.844Z,19.70
2019-02-19T10:34:30.359Z,19.70
2019-02-19T10:36:58.535Z,19.70
2019-02-19T10:39:26.400Z,19.70
2019-02-19T10:41:54.244Z,19.70
2019-02-19T10:44:22.108Z,19.80
2019-02-19T10:46:49.955Z,19.50
2019-02-19T10:49:17.828Z,19.40
2019-02-19T10:51:45.663Z,19.40
2019-02-19T10:54:13.531Z,19.50
2019-02-19T10:56:41.372Z,19.50
2019-02-19T10:59:09.273Z,19.60
2019-02-19T11:01:37.582Z,19.60
2019-02-19T11:04:05.455Z,19.60
2019-02-19T11:06:33.301Z,19.60
2019-02-19T11:09:01.167Z,19.60
2019-02-19T11:11:28.999Z,19.60
2019-02-19T11:13:56.863Z,19.60
2019-02-19T11:16:24.707Z,19.60
2019-02-19T11:18:52.586Z,19.70
2019-02-19T11:21:20.427Z,19.70
2019-02-19T11:23:48.603Z,19.70
2019-02-19T11:26:16.450Z,19.70
2019-02-19T11:28:44.337Z,19.60
2019-02-19T11:31:12.244Z,19.60
2019-02-19T11:33:40.196Z,19.60
2019-02-19T11:36:08.038Z,19.60
2019-02-19T11:38:36.211Z,19.60
2019-02-19T11:41:04.062Z,19.60
2019-02-19T11:43:33.148Z,19.60
2019-02-19T11:46:01.475Z,19.60
2019-02-19T11:48:36.771Z,19.60
2019-02-19T11:50:58.904Z,19.60
2019-02-19T11:53:26.752Z,19.70
2019-02-19T11:55:54.767Z,19.70
2019-02-19T11:58:22.609Z,19.70
2019-02-19T12:00:50.548Z,19.70
2019-02-19T12:03:18.383Z,19.80
2019-02-19T12:05:46.255Z,19.80
2019-02-19T12:08:14.421Z,19.80
2019-02-19T12:10:42.568Z,19.80
2019-02-19T12:13:10.404Z,19.80
2019-02-19T12:15:38.289Z,19.80
2019-02-19T12:18:06.199Z,19.80
2019-02-19T12:20:34.043Z,19.80
2019-02-19T12:23:01.892Z,19.80
2019-02-19T12:25:29.730Z,19.80
2019-02-19T12:27:57.567Z,19.80
2019-02-19T12:30:25.500Z,19.80
2019-02-19T12:32:53.343Z,19.80
2019-02-19T12:35:21.266Z,19.80
2019-02-19T12:37:49.404Z,19.80
2019-02-19T12:40:17.575Z,19.80
2019-02-19T12:42:45.445Z,19.80
2019-02-19T12:45:13.330Z,19.80
2019-02-19T12:47:41.162Z,19.80
2019-02-19T12:50:09.915Z,19.80
2019-02-19T12:52:37.790Z,19.80
2019-02-19T12:55:06.207Z,19.70
2019-02-19T12:57:34.056Z,19.70
2019-02-19T13:00:02.835Z,19.70
2019-02-19T13:02:30.892Z,19.70
2019-02-19T13:04:58.743Z,19.70
2019-02-19T13:07:26.871Z,19.70
2019-02-19T13:09:54.710Z,19.70
2019-02-19T13:12:22.907Z,19.70
2019-02-19T13:14:50.746Z,19.80
2019-02-19T13:17:18.968Z,19.80
2019-02-19T13:19:47.172Z,19.80
2019-02-19T13:22:15.048Z,19.80
2019-02-19T13:24:43.146Z,19.80
2019-02-19T13:27:11.258Z,19.80
2019-02-19T13:29:39.543Z,19.80
2019-02-19T13:32:07.480Z,19.80
2019-02-19T13:34:35.646Z,19.80
2019-02-19T13:37:03.608Z,19.80
2019-02-19T13:39:31.523Z,19.90
2019-02-19T13:41:59.866Z,19.90
2019-02-19T13:44:28.252Z,19.90
2019-02-19T13:46:56.464Z,19.90
2019-02-19T13:49:24.718Z,19.90
2019-02-19T13:51:54.509Z,19.90
2019-02-19T13:54:33.563Z,19.90
2019-02-19T13:57:01.558Z,19.90
2019-02-19T13:59:29.576Z,19.80
2019-02-19T14:01:57.495Z,19.80
2019-02-19T14:04:28.887Z,19.80
2019-02-19T14:06:56.754Z,19.80
2019-02-19T14:09:24.601Z,19.80
2019-02-19T14:11:52.479Z,19.80
2019-02-19T14:14:42.259Z,19.80
2019-02-19T14:17:13.226Z,19.80
2019-02-19T14:19:46.435Z,19.80
2019-02-19T14:22:32.177Z,19.80
2019-02-19T14:25:18.091Z,19.70
2019-02-19T14:28:20.223Z,19.70
2019-02-19T14:31:19.278Z,19.70
2019-02-19T14:34:06.340Z,19.70
2019-02-19T14:36:59.493Z,19.70
2019-02-19T14:39:46.734Z,19.70
2019-02-19T14:42:29.587Z,19.70
2019-02-19T14:45:19.646Z,19.80
2019-02-19T14:48:06.380Z,19.80
2019-02-19T14:50:53.676Z,19.80
2019-02-19T14:53:39.276Z,19.80
2019-02-19T14:56:25.055Z,19.90
2019-02-19T14:59:24.246Z,19.90
2019-02-19T15:02:04.376Z,20.00
2019-02-19T15:04:54.891Z,20.00
2019-02-19T15:07:51.276Z,20.00
2019-02-19T15:10:41.265Z,20.00
2019-02-19T15:13:15.747Z,20.00
2019-02-19T15:15:56.933Z,20.00
2019-02-19T15:18:58.939Z,20.00
2019-02-19T15:21:41.428Z,20.00
2019-02-19T15:24:34.200Z,20.10
2019-02-19T15:27:17.799Z,20.10
2019-02-19T15:30:16.875Z,20.10
2019-02-19T15:33:02.540Z,20.10
2019-02-19T15:35:58.892Z,20.10
2019-02-19T15:38:48.677Z,20.10
2019-02-19T15:41:38.856Z,20.10
2019-02-19T15:44:44.342Z,20.10
2019-02-19T15:47:28.572Z,20.10
2019-02-19T15:50:08.203Z,20.10
2019-02-19T15:53:01.581Z,20.10
2019-02-19T15:56:06.691Z,20.20
2019-02-19T15:58:41.539Z,20.10
2019-02-19T16:01:36.438Z,20.00
2019-02-19T16:04:22.140Z,20.10
2019-02-19T16:07:09.189Z,19.90
2019-02-19T16:10:02.583Z,20.10
2019-02-19T16:12:49.912Z,20.20
2019-02-19T16:15:35.864Z,20.30
2019-02-19T16:18:28.890Z,20.30
2019-02-19T16:21:15.856Z,20.20
2019-02-19T16:24:02.837Z,20.20
2019-02-19T16:26:50.132Z,20.10
2019-02-19T16:29:46.758Z,20.10
2019-02-19T16:32:32.935Z,20.10
2019-02-19T16:35:25.960Z,20.00
2019-02-19T16:38:16.733Z,20.00
2019-02-19T16:40:50.830Z,20.00
2019-02-19T16:43:27.843Z,20.00
2019-02-19T16:46:27.002Z,20.00
2019-02-19T16:49:15.766Z,20.00
2019-02-19T16:51:57.006Z,20.00
2019-02-19T16:54:47.323Z,19.90
2019-02-19T16:57:40.731Z,19.90
2019-02-19T17:00:31.718Z,19.90
2019-02-19T17:03:17.463Z,19.90
2019-02-19T17:05:55.621Z,19.90
2019-02-19T17:08:48.871Z,19.90
2019-02-19T17:11:42.656Z,19.90
2019-02-19T17:14:33.354Z,19.80
2019-02-19T17:17:14.120Z,19.80
2019-02-19T17:20:01.223Z,19.80
2019-02-19T17:23:00.249Z,19.80
2019-02-19T17:25:46.111Z,19.80
2019-02-19T17:28:31.803Z,19.80
2019-02-19T17:31:17.451Z,19.80
2019-02-19T17:34:13.404Z,19.80
2019-02-19T17:36:59.039Z,19.80
2019-02-19T17:39:32.396Z,19.80
2019-02-19T17:42:06.292Z,19.80
2019-02-19T17:44:40.620Z,19.80
2019-02-19T17:47:29.079Z,19.80
2019-02-19T17:50:04.579Z,19.80
2019-02-19T17:52:50.687Z,19.80
2019-02-19T17:55:43.983Z,19.80
2019-02-19T17:58:30.443Z,19.80
2019-02-19T18:01:32.640Z,19.80
2019-02-19T18:04:22.695Z,19.80
2019-02-19T18:07:02.357Z,19.80
2019-02-19T18:09:47.969Z,19.80
2019-02-19T18:12:34.959Z,19.80
2019-02-19T18:15:37.524Z,19.80
2019-02-19T18:18:19.452Z,19.80
2019-02-19T18:20:48.085Z,19.70
2019-02-19T18:23:16.139Z,19.70
2019-02-19T18:25:43.983Z,19.70
2019-02-19T18:28:11.847Z,19.70
2019-02-19T18:30:40.018Z,19.70
2019-02-19T18:33:08.144Z,19.70
2019-02-19T18:35:36.315Z,19.70
2019-02-19T18:38:04.210Z,19.70
2019-02-19T18:40:32.202Z,19.70
2019-02-19T18:43:00.127Z,19.70
2019-02-19T18:45:28.155Z,19.70
2019-02-19T18:47:56.392Z,19.70
2019-02-19T18:50:24.955Z,19.70
2019-02-19T18:52:52.801Z,19.70
2019-02-19T18:55:20.739Z,19.70
2019-02-19T18:57:48.851Z,19.60
2019-02-19T19:00:16.698Z,19.70
2019-02-19T19:02:44.612Z,19.60
2019-02-19T19:05:12.450Z,19.70
2019-02-19T19:07:40.310Z,19.60
2019-02-19T19:10:08.764Z,19.60
2019-02-19T19:12:36.606Z,19.60
2019-02-19T19:15:04.715Z,19.60
2019-02-19T19:17:32.570Z,19.70
2019-02-19T19:20:00.675Z,19.60
2019-02-19T19:22:28.520Z,19.60
2019-02-19T19:24:56.367Z,19.60
2019-02-19T19:27:24.577Z,19.60
2019-02-19T19:29:52.500Z,19.60
2019-02-19T19:32:20.622Z,19.60
2019-02-19T19:34:48.472Z,19.60
2019-02-19T19:37:16.316Z,19.60
2019-02-19T19:39:44.182Z,19.60
2019-02-19T19:42:12.029Z,19.60
2019-02-19T19:44:39.931Z,19.60
2019-02-19T19:47:07.788Z,19.60
2019-02-19T19:49:35.664Z,19.50
2019-02-19T19:52:03.869Z,19.60
2019-02-19T19:54:32.134Z,19.60
2019-02-19T19:56:59.995Z,19.60
2019-02-19T19:59:27.868Z,19.60
2019-02-19T20:01:55.710Z,19.60
2019-02-19T20:04:23.608Z,19.60
2019-02-19T20:06:51.456Z,19.60
2019-02-19T20:09:19.313Z,19.60
2019-02-19T20:11:47.499Z,19.60
2019-02-19T20:14:15.417Z,19.60
2019-02-19T20:16:43.258Z,19.60
2019-02-19T20:19:11.111Z,19.60
2019-02-19T20:21:39.271Z,19.60
2019-02-19T20:24:07.448Z,19.60
2019-02-19T20:26:35.304Z,19.60
2019-02-19T20:29:03.149Z,19.60
2019-02-19T20:31:30.991Z,19.40
2019-02-19T20:33:59.115Z,19.40
2019-02-19T20:36:27.312Z,19.40
2019-02-19T20:38:55.307Z,19.60
2019-02-19T20:41:23.734Z,19.70
2019-02-19T20:43:51.584Z,19.70
2019-02-19T20:46:19.780Z,19.70
2019-02-19T20:48:47.610Z,19.60
2019-02-19T20:51:15.451Z,19.60
2019-02-19T20:53:43.301Z,19.60
2019-02-19T20:56:11.549Z,19.60
2019-02-19T20:58:39.739Z,19.60
2019-02-19T21:01:07.669Z,19.60
2019-02-19T21:03:35.516Z,19.60
2019-02-19T21:06:03.395Z,19.50
2019-02-19T21:08:31.603Z,19.40
2019-02-19T21:10:59.471Z,19.50
2019-02-19T21:13:27.306Z,19.60
2019-02-19T21:15:55.194Z,19.60
2019-02-19T21:18:23.028Z,19.70
2019-02-19T21:20:51.867Z,19.60
2019-02-19T21:23:19.712Z,19.50
2019-02-19T21:25:47.578Z,19.50
2019-02-19T21:28:15.422Z,19.60
2019-02-19T21:30:45.373Z,19.50
2019-02-19T21:33:13.509Z,19.50
2019-02-19T21:35:41.442Z,19.60
2019-02-19T21:38:09.363Z,19.60
2019-02-19T21:40:37.233Z,19.70
2019-02-19T21:43:05.235Z,19.80
2019-02-19T21:45:33.921Z,19.80
2019-02-19T21:48:01.850Z,19.80
2019-02-19T21:50:30.056Z,19.80
2019-02-19T21:52:57.986Z,19.80
2019-02-19T21:55:25.840Z,19.80
2019-02-19T21:57:53.679Z,19.80
2019-02-19T22:00:22.630Z,19.80
2019-02-19T22:02:50.795Z,19.80
2019-02-19T22:05:18.639Z,19.80
2019-02-19T22:07:46.484Z,19.70
2019-02-19T22:10:14.380Z,19.70
2019-02-19T22:12:42.230Z,19.70
2019-02-19T22:15:10.439Z,19.70
2019-02-19T22:17:38.358Z,19.60
2019-02-19T22:20:08.430Z,19.60
2019-02-19T22:22:36.272Z,19.60
2019-02-19T22:25:04.119Z,19.60
2019-02-19T22:27:32.223Z,19.60
2019-02-19T22:30:00.192Z,19.60
2019-02-19T22:32:28.362Z,19.60
2019-02-19T22:34:56.216Z,19.60
2019-02-19T22:37:24.064Z,19.60
2019-02-19T22:39:51.899Z,19.60
2019-02-19T22:42:19.755Z,19.60
2019-02-19T22:44:47.599Z,19.50
2019-02-19T22:47:15.453Z,19.50
2019-02-19T22:49:43.291Z,19.50
2019-02-19T22:52:12.835Z,19.50
2019-02-19T22:54:55.454Z,19.50
2019-02-19T22:57:23.309Z,19.50
2019-02-19T22:59:51.156Z,19.40
2019-02-19T23:02:23.671Z,19.40
2019-02-19T23:04:51.929Z,19.40
2019-02-19T23:07:19.771Z,19.20
2019-02-19T23:09:47.619Z,19.20
2019-02-19T23:12:15.488Z,19.10
2019-02-19T23:14:43.599Z,19.10
2019-02-19T23:17:11.979Z,19.00
2019-02-19T23:19:39.828Z,19.00
2019-02-19T23:22:07.696Z,19.00
2019-02-19T23:24:35.544Z,19.00
2019-02-19T23:27:03.747Z,19.00
2019-02-19T23:29:31.921Z,18.90
2019-02-19T23:31:59.798Z,18.90
2019-02-19T23:34:27.651Z,18.90
2019-02-19T23:37:09.369Z,18.90
2019-02-19T23:39:43.459Z,18.90
2019-02-19T23:42:06.884Z,18.90
2019-02-19T23:44:35.419Z,18.80
2019-02-19T23:47:03.572Z,18.80
2019-02-19T23:49:31.497Z,18.80
2019-02-19T23:51:59.367Z,18.80
2019-02-19T23:54:28.943Z,18.80
2019-02-19T23:56:56.807Z,18.80
2019-02-19T23:59:24.656Z,18.80
